RJSF(METAR)
06/26 09:00
METAR RJSF 260000Z 17006KT 120V230 9999 FEW015 22/18 Q1017 RMK
1CU015 A3003=
戻る
トップページへ戻る
IMOC Co,.Ltd.